sensor_id;sensor_type;location;lat;lon;timestamp;pressure;altitude;pressure_sealevel;temperature;humidity
21664;BME280;10993;52.510;13.456;2023-06-19T00:01:26;57186.47;;;-146.93;72.85
21664;BME280;10993;52.510;13.456;2023-06-19T00:06:26;57160.16;;;-146.93;72.98
21664;BME280;10993;52.510;13.456;2023-06-19T00:11:27;57186.47;;;-146.93;73.57
21664;BME280;10993;52.510;13.456;2023-06-19T00:16:28;57196.59;;;-146.93;74.40
21664;BME280;10993;52.510;13.456;2023-06-19T00:21:29;57022.44;;;-146.93;74.04
21664;BME280;10993;52.510;13.456;2023-06-19T00:26:32;56977.91;;;-146.93;74.17
21664;BME280;10993;52.510;13.456;2023-06-19T00:31:34;57145.97;;;-146.93;74.09
21664;BME280;10993;52.510;13.456;2023-06-19T00:36:37;57506.44;;;-146.93;74.01
21664;BME280;10993;52.510;13.456;2023-06-19T00:41:40;57200.66;;;-146.93;73.09
21664;BME280;10993;52.510;13.456;2023-06-19T00:46:44;57204.69;;;-146.93;73.18
21664;BME280;10993;52.510;13.456;2023-06-19T00:51:44;57192.56;;;-146.93;73.11
21664;BME280;10993;52.510;13.456;2023-06-19T00:56:45;57642.16;;;-146.93;72.89
21664;BME280;10993;52.510;13.456;2023-06-19T01:01:47;57204.69;;;-146.93;73.49
21664;BME280;10993;52.510;13.456;2023-06-19T01:06:54;57224.97;;;-146.93;72.97
21664;BME280;10993;52.510;13.456;2023-06-19T01:12:04;57470.00;;;-146.93;72.99
21664;BME280;10993;52.510;13.456;2023-06-19T01:17:08;57204.69;;;-146.93;73.14
21664;BME280;10993;52.510;13.456;2023-06-19T01:22:10;57194.56;;;-146.93;73.39
21664;BME280;10993;52.510;13.456;2023-06-19T01:27:10;57184.44;;;-146.93;73.98
21664;BME280;10993;52.510;13.456;2023-06-19T01:32:16;57170.28;;;-146.93;74.12
21664;BME280;10993;52.510;13.456;2023-06-19T01:37:20;57172.31;;;-146.93;75.33
21664;BME280;10993;52.510;13.456;2023-06-19T01:42:21;57137.88;;;-146.93;75.46
21664;BME280;10993;52.510;13.456;2023-06-19T01:47:22;57111.56;;;-146.93;75.14
21664;BME280;10993;52.510;13.456;2023-06-19T01:52:23;57156.09;;;-146.93;75.04
21664;BME280;10993;52.510;13.456;2023-06-19T01:57:24;57166.22;;;-146.93;74.76
21664;BME280;10993;52.510;13.456;2023-06-19T02:02:26;57133.81;;;-146.93;75.25
21664;BME280;10993;52.510;13.456;2023-06-19T02:07:28;57184.44;;;-146.93;74.60
21664;BME280;10993;52.510;13.456;2023-06-19T02:12:28;57160.16;;;-146.93;74.29
21664;BME280;10993;52.510;13.456;2023-06-19T02:17:28;57158.13;;;-146.93;74.15
21664;BME280;10993;52.510;13.456;2023-06-19T02:22:30;57156.09;;;-146.93;74.52
21664;BME280;10993;52.510;13.456;2023-06-19T02:27:30;57204.69;;;-146.93;74.18
21664;BME280;10993;52.510;13.456;2023-06-19T02:32:31;57152.06;;;-146.93;74.84
21664;BME280;10993;52.510;13.456;2023-06-19T02:37:32;57186.47;;;-146.93;74.98
21664;BME280;10993;52.510;13.456;2023-06-19T02:42:36;57192.56;;;-146.93;74.23
21664;BME280;10993;52.510;13.456;2023-06-19T02:47:36;57212.81;;;-146.93;73.49
21664;BME280;10993;52.510;13.456;2023-06-19T02:52:38;57182.44;;;-146.93;73.65
21664;BME280;10993;52.510;13.456;2023-06-19T02:57:38;57463.94;;;-146.93;73.89
21664;BME280;10993;52.510;13.456;2023-06-19T03:02:38;57196.59;;;-146.93;73.00
21664;BME280;10993;52.510;13.456;2023-06-19T03:07:43;57174.31;;;-146.93;73.27
21664;BME280;10993;52.510;13.456;2023-06-19T03:12:43;57164.19;;;-146.93;73.28
21664;BME280;10993;52.510;13.456;2023-06-19T03:17:44;57212.81;;;-146.93;72.95
21664;BME280;10993;52.510;13.456;2023-06-19T03:22:46;57192.56;;;-146.93;73.09
21664;BME280;10993;52.510;13.456;2023-06-19T03:27:46;57214.84;;;-146.93;72.24
21664;BME280;10993;52.510;13.456;2023-06-19T03:32:46;57239.13;;;-146.93;70.78
21664;BME280;10993;52.510;13.456;2023-06-19T03:37:48;57407.22;;;-146.93;68.91
21664;BME280;10993;52.510;13.456;2023-06-19T03:42:48;57755.56;;;-146.93;60.05
21664;BME280;10993;52.510;13.456;2023-06-19T03:47:49;57907.47;;;-146.93;55.54
21664;BME280;10993;52.510;13.456;2023-06-19T03:52:51;58010.78;;;-146.93;54.46
21664;BME280;10993;52.510;13.456;2023-06-19T03:57:51;58401.75;;;-146.93;45.76
21664;BME280;10993;52.510;13.456;2023-06-19T04:02:52;58006.72;;;-146.93;50.23
21664;BME280;10993;52.510;13.456;2023-06-19T04:07:54;57648.22;;;-146.93;57.23
21664;BME280;10993;52.510;13.456;2023-06-19T04:12:54;57494.31;;;-146.93;61.46
21664;BME280;10993;52.510;13.456;2023-06-19T04:17:55;57403.16;;;-146.93;63.18
21664;BME280;10993;52.510;13.456;2023-06-19T04:22:57;57348.50;;;-146.93;63.98
21664;BME280;10993;52.510;13.456;2023-06-19T04:27:57;57409.25;;;-146.93;65.04
21664;BME280;10993;52.510;13.456;2023-06-19T04:33:00;57397.09;;;-146.93;64.88
21664;BME280;10993;52.510;13.456;2023-06-19T04:38:01;57348.50;;;-146.93;65.18
21664;BME280;10993;52.510;13.456;2023-06-19T04:43:02;57397.09;;;-146.93;64.79
21664;BME280;10993;52.510;13.456;2023-06-19T04:48:03;57372.78;;;-146.93;64.80
21664;BME280;10993;52.510;13.456;2023-06-19T04:53:04;57962.16;;;-146.93;65.91
21664;BME280;10993;52.510;13.456;2023-06-19T04:58:06;57382.91;;;-146.93;65.05
21664;BME280;10993;52.510;13.456;2023-06-19T05:03:06;57423.41;;;-146.93;64.86
21664;BME280;10993;52.510;13.456;2023-06-19T05:08:07;57439.63;;;-146.93;63.44
21664;BME280;10993;52.510;13.456;2023-06-19T05:13:08;57405.19;;;-146.93;65.97
21664;BME280;10993;52.510;13.456;2023-06-19T05:18:08;57435.56;;;-146.93;64.87
21664;BME280;10993;52.510;13.456;2023-06-19T05:23:10;57417.34;;;-146.93;65.58
21664;BME280;10993;52.510;13.456;2023-06-19T05:28:10;57391.00;;;-146.93;66.44
21664;BME280;10993;52.510;13.456;2023-06-19T05:33:11;57415.31;;;-146.93;66.29
21664;BME280;10993;52.510;13.456;2023-06-19T05:38:17;57441.66;;;-146.93;66.21
21664;BME280;10993;52.510;13.456;2023-06-19T05:43:17;57340.38;;;-146.93;65.23
21664;BME280;10993;52.510;13.456;2023-06-19T05:48:18;57498.34;;;-146.93;64.74
21664;BME280;10993;52.510;13.456;2023-06-19T05:53:20;57496.31;;;-146.93;64.80
21664;BME280;10993;52.510;13.456;2023-06-19T05:58:21;57656.31;;;-146.93;65.33
21664;BME280;10993;52.510;13.456;2023-06-19T06:03:24;57496.31;;;-146.93;64.61
21664;BME280;10993;52.510;13.456;2023-06-19T06:08:26;57449.75;;;-146.93;65.56
21664;BME280;10993;52.510;13.456;2023-06-19T06:13:26;57467.97;;;-146.93;66.17
21664;BME280;10993;52.510;13.456;2023-06-19T06:18:27;57496.31;;;-146.93;64.65
21664;BME280;10993;52.510;13.456;2023-06-19T06:23:29;57532.78;;;-146.93;63.37
21664;BME280;10993;52.510;13.456;2023-06-19T06:28:29;57557.09;;;-146.93;63.32
21664;BME280;10993;52.510;13.456;2023-06-19T06:33:30;57516.59;;;-146.93;63.75
21664;BME280;10993;52.510;13.456;2023-06-19T06:38:31;57581.38;;;-146.93;62.46
21664;BME280;10993;52.510;13.456;2023-06-19T06:43:32;57642.16;;;-146.93;61.05
21664;BME280;10993;52.510;13.456;2023-06-19T06:48:32;57623.91;;;-146.93;60.51
21664;BME280;10993;52.510;13.456;2023-06-19T06:53:34;57696.84;;;-146.93;60.34
21664;BME280;10993;52.510;13.456;2023-06-19T06:58:34;57771.78;;;-146.93;59.72
21664;BME280;10993;52.510;13.456;2023-06-19T07:03:34;57844.69;;;-146.93;58.53
21664;BME280;10993;52.510;13.456;2023-06-19T07:08:36;57806.22;;;-146.93;58.50
21664;BME280;10993;52.510;13.456;2023-06-19T07:13:37;57887.22;;;-146.93;56.48
21664;BME280;10993;52.510;13.456;2023-06-19T07:18:37;57972.28;;;-146.93;55.38
21664;BME280;10993;52.510;13.456;2023-06-19T07:23:40;58150.53;;;-146.93;53.46
21664;BME280;10993;52.510;13.456;2023-06-19T07:28:41;58073.56;;;-146.93;54.16
21664;BME280;10993;52.510;13.456;2023-06-19T07:33:42;58075.59;;;-146.93;53.02
21664;BME280;10993;52.510;13.456;2023-06-19T07:38:43;58247.78;;;-146.93;50.54
21664;BME280;10993;52.510;13.456;2023-06-19T07:43:44;58353.13;;;-146.93;48.43
21664;BME280;10993;52.510;13.456;2023-06-19T07:48:44;58367.31;;;-146.93;47.85
21664;BME280;10993;52.510;13.456;2023-06-19T07:53:46;58391.59;;;-146.93;46.78
21664;BME280;10993;52.510;13.456;2023-06-19T07:58:46;58456.44;;;-146.93;46.05
21664;BME280;10993;52.510;13.456;2023-06-19T08:03:47;58450.34;;;-146.93;45.76
21664;BME280;10993;52.510;13.456;2023-06-19T08:08:49;58642.81;;;-146.93;44.25
21664;BME280;10993;52.510;13.456;2023-06-19T08:13:49;58626.59;;;-146.93;43.66
21664;BME280;10993;52.510;13.456;2023-06-19T08:18:50;58843.38;;;-146.93;42.85
21664;BME280;10993;52.510;13.456;2023-06-19T08:23:52;58808.94;;;-146.93;42.65
21664;BME280;10993;52.510;13.456;2023-06-19T08:28:53;58776.53;;;-146.93;42.45
21664;BME280;10993;52.510;13.456;2023-06-19T08:33:53;58983.19;;;-146.93;40.40
21664;BME280;10993;52.510;13.456;2023-06-19T08:38:55;59489.75;;;-146.93;41.49
21664;BME280;10993;52.510;13.456;2023-06-19T08:43:55;58806.91;;;-146.93;41.06
21664;BME280;10993;52.510;13.456;2023-06-19T08:48:56;58926.47;;;-146.93;40.87
21664;BME280;10993;52.510;13.456;2023-06-19T08:54:00;58983.19;;;-146.93;40.77
21664;BME280;10993;52.510;13.456;2023-06-19T08:59:08;58966.97;;;-146.93;40.63
21664;BME280;10993;52.510;13.456;2023-06-19T09:04:10;58798.81;;;-146.93;41.43
21664;BME280;10993;52.510;13.456;2023-06-19T09:09:12;58815.03;;;-146.93;42.82
21664;BME280;10993;52.510;13.456;2023-06-19T09:14:14;59033.84;;;-146.93;41.31
21664;BME280;10993;52.510;13.456;2023-06-19T09:19:20;59076.41;;;-146.93;41.92
21664;BME280;10993;52.510;13.456;2023-06-19T09:24:21;59068.28;;;-146.93;41.42
21664;BME280;10993;52.510;13.456;2023-06-19T09:29:25;59033.84;;;-146.93;41.51
21664;BME280;10993;52.510;13.456;2023-06-19T09:34:26;58971.03;;;-146.93;42.46
21664;BME280;10993;52.510;13.456;2023-06-19T09:39:28;58869.72;;;-146.93;42.76
21664;BME280;10993;52.510;13.456;2023-06-19T09:44:31;58922.41;;;-146.93;42.88
21664;BME280;10993;52.510;13.456;2023-06-19T09:49:31;58991.28;;;-146.93;42.29
21664;BME280;10993;52.510;13.456;2023-06-19T09:54:36;59066.25;;;-146.93;41.00
21664;BME280;10993;52.510;13.456;2023-06-19T09:59:38;59218.22;;;-146.93;40.38
21664;BME280;10993;52.510;13.456;2023-06-19T10:04:44;59291.19;;;-146.93;40.08
21664;BME280;10993;52.510;13.456;2023-06-19T10:09:59;59254.69;;;-146.93;40.76
21664;BME280;10993;52.510;13.456;2023-06-19T10:15:08;59068.28;;;-146.93;41.69
21664;BME280;10993;52.510;13.456;2023-06-19T10:20:19;59080.44;;;-146.93;41.58
21664;BME280;10993;52.510;13.456;2023-06-19T10:25:22;59052.06;;;-146.93;42.05
21664;BME280;10993;52.510;13.456;2023-06-19T10:30:23;59202.03;;;-146.93;40.73
21664;BME280;10993;52.510;13.456;2023-06-19T10:35:24;59246.59;;;-146.93;40.06
21664;BME280;10993;52.510;13.456;2023-06-19T10:40:26;59108.81;;;-146.93;41.82
21664;BME280;10993;52.510;13.456;2023-06-19T10:45:26;58821.09;;;-146.93;45.60
21664;BME280;10993;52.510;13.456;2023-06-19T10:50:29;58456.44;;;-146.93;52.68
21664;BME280;10993;52.510;13.456;2023-06-19T10:55:30;58588.13;;;-146.93;50.99
21664;BME280;10993;52.510;13.456;2023-06-19T11:00:32;58989.28;;;-146.93;47.03
21664;BME280;10993;52.510;13.456;2023-06-19T11:05:33;59301.31;;;-146.93;42.61
21664;BME280;10993;52.510;13.456;2023-06-19T11:10:35;59412.75;;;-146.93;39.88
21664;BME280;10993;52.510;13.456;2023-06-19T11:15:35;59785.63;;;-146.93;37.52
21664;BME280;10993;52.510;13.456;2023-06-19T11:20:48;59668.09;;;-146.93;37.44
21664;BME280;10993;52.510;13.456;2023-06-19T11:25:51;59777.53;;;-146.93;36.38
21664;BME280;10993;52.510;13.456;2023-06-19T11:30:58;60065.31;;;-146.93;35.51
21664;BME280;10993;52.510;13.456;2023-06-19T11:36:01;60057.22;;;-146.93;35.74
21664;BME280;10993;52.510;13.456;2023-06-19T11:41:03;59793.75;;;-146.93;36.02
21664;BME280;10993;52.510;13.456;2023-06-19T11:46:05;60055.19;;;-146.93;35.28
21664;BME280;10993;52.510;13.456;2023-06-19T11:51:06;60505.16;;;-146.93;35.09
21664;BME280;10993;52.510;13.456;2023-06-19T11:56:09;60507.19;;;-146.93;33.70
21664;BME280;10993;52.510;13.456;2023-06-19T12:01:09;60681.53;;;-146.93;33.86
21664;BME280;10993;52.510;13.456;2023-06-19T12:06:10;60993.72;;;-146.93;32.54
21664;BME280;10993;52.510;13.456;2023-06-19T12:11:11;60776.78;;;-146.93;32.69
21664;BME280;10993;52.510;13.456;2023-06-19T12:16:14;60636.91;;;-146.93;32.65
21664;BME280;10993;52.510;13.456;2023-06-19T12:21:14;61001.81;;;-146.93;32.45
21664;BME280;10993;52.510;13.456;2023-06-19T12:26:16;60643.00;;;-146.93;32.54
21664;BME280;10993;52.510;13.456;2023-06-19T12:31:17;60758.56;;;-146.93;31.86
21664;BME280;10993;52.510;13.456;2023-06-19T12:36:17;60640.97;;;-146.93;30.86
21664;BME280;10993;52.510;13.456;2023-06-19T12:41:19;60501.09;;;-146.93;31.43
21664;BME280;10993;52.510;13.456;2023-06-19T12:46:19;60413.94;;;-146.93;31.56
21664;BME280;10993;52.510;13.456;2023-06-19T12:51:19;60219.34;;;-146.93;32.01
21664;BME280;10993;52.510;13.456;2023-06-19T12:56:21;60069.38;;;-146.93;32.45
21664;BME280;10993;52.510;13.456;2023-06-19T13:01:21;60201.13;;;-146.93;32.29
21664;BME280;10993;52.510;13.456;2023-06-19T13:06:22;59931.56;;;-146.93;33.37
21664;BME280;10993;52.510;13.456;2023-06-19T13:11:23;60032.88;;;-146.93;33.09
21664;BME280;10993;52.510;13.456;2023-06-19T13:16:24;60199.09;;;-146.93;32.64
21664;BME280;10993;52.510;13.456;2023-06-19T13:21:28;61447.88;;;-146.93;32.00
21664;BME280;10993;52.510;13.456;2023-06-19T13:26:30;60527.47;;;-146.93;30.47
21664;BME280;10993;52.510;13.456;2023-06-19T13:31:30;60432.19;;;-146.93;30.62
21664;BME280;10993;52.510;13.456;2023-06-19T13:36:31;60673.41;;;-146.93;30.75
21664;BME280;10993;52.510;13.456;2023-06-19T13:41:33;60446.38;;;-146.93;31.26
21664;BME280;10993;52.510;13.456;2023-06-19T13:46:34;60369.34;;;-146.93;30.88
21664;BME280;10993;52.510;13.456;2023-06-19T13:51:34;60464.63;;;-146.93;30.85
21664;BME280;10993;52.510;13.456;2023-06-19T13:56:36;60415.97;;;-146.93;31.26
21664;BME280;10993;52.510;13.456;2023-06-19T14:01:38;60369.34;;;-146.93;31.18
21664;BME280;10993;52.510;13.456;2023-06-19T14:06:39;60255.84;;;-146.93;31.62
21664;BME280;10993;52.510;13.456;2023-06-19T14:11:43;60118.00;;;-146.93;32.02
21664;BME280;10993;52.510;13.456;2023-06-19T14:16:44;60383.53;;;-146.93;31.87
21664;BME280;10993;52.510;13.456;2023-06-19T14:21:44;60580.16;;;-146.93;31.52
21664;BME280;10993;52.510;13.456;2023-06-19T14:26:46;61480.31;;;-146.93;31.17
21664;BME280;10993;52.510;13.456;2023-06-19T14:31:46;60345.03;;;-146.93;31.87
21664;BME280;10993;52.510;13.456;2023-06-19T14:36:47;60503.13;;;-146.93;31.74
21664;BME280;10993;52.510;13.456;2023-06-19T14:41:49;60434.22;;;-146.93;32.27
21664;BME280;10993;52.510;13.456;2023-06-19T14:46:49;60523.41;;;-146.93;31.77
21664;BME280;10993;52.510;13.456;2023-06-19T14:51:49;60614.63;;;-146.93;31.76
21664;BME280;10993;52.510;13.456;2023-06-19T14:56:51;60606.50;;;-146.93;31.97
21664;BME280;10993;52.510;13.456;2023-06-19T15:01:52;60649.09;;;-146.93;32.02
21664;BME280;10993;52.510;13.456;2023-06-19T15:06:52;61143.75;;;-146.93;32.38
21664;BME280;10993;52.510;13.456;2023-06-19T15:11:54;60318.69;;;-146.93;32.48
21664;BME280;10993;52.510;13.456;2023-06-19T15:16:54;60294.34;;;-146.93;33.24
21664;BME280;10993;52.510;13.456;2023-06-19T15:21:54;60249.75;;;-146.93;33.04
21664;BME280;10993;52.510;13.456;2023-06-19T15:26:56;60265.97;;;-146.93;33.37
21664;BME280;10993;52.510;13.456;2023-06-19T15:31:59;60336.91;;;-146.93;33.41
21664;BME280;10993;52.510;13.456;2023-06-19T15:36:59;60411.91;;;-146.93;32.36
21664;BME280;10993;52.510;13.456;2023-06-19T15:42:01;60375.44;;;-146.93;33.15
21664;BME280;10993;52.510;13.456;2023-06-19T15:47:02;60290.31;;;-146.93;33.15
21664;BME280;10993;52.510;13.456;2023-06-19T15:52:02;60259.91;;;-146.93;33.33
21664;BME280;10993;52.510;13.456;2023-06-19T15:57:04;60409.88;;;-146.93;32.99
21664;BME280;10993;52.510;13.456;2023-06-19T16:02:05;60511.25;;;-146.93;32.94
21664;BME280;10993;52.510;13.456;2023-06-19T16:07:06;60535.56;;;-146.93;32.67
21664;BME280;10993;52.510;13.456;2023-06-19T16:12:11;60588.28;;;-146.93;32.17
21664;BME280;10993;52.510;13.456;2023-06-19T16:17:11;60499.06;;;-146.93;32.36
21664;BME280;10993;52.510;13.456;2023-06-19T16:22:14;60474.75;;;-146.93;32.64
21664;BME280;10993;52.510;13.456;2023-06-19T16:27:16;60405.84;;;-146.93;32.66
21664;BME280;10993;52.510;13.456;2023-06-19T16:32:16;60345.03;;;-146.93;32.64
21664;BME280;10993;52.510;13.456;2023-06-19T16:37:17;60559.88;;;-146.93;32.54
21664;BME280;10993;52.510;13.456;2023-06-19T16:42:18;60470.69;;;-146.93;32.45
21664;BME280;10993;52.510;13.456;2023-06-19T16:47:20;60549.75;;;-146.93;32.51
21664;BME280;10993;52.510;13.456;2023-06-19T16:52:20;60403.81;;;-146.93;33.00
21664;BME280;10993;52.510;13.456;2023-06-19T16:57:23;60322.72;;;-146.93;33.17
21664;BME280;10993;52.510;13.456;2023-06-19T17:02:26;60045.06;;;-146.93;33.21
21664;BME280;10993;52.510;13.456;2023-06-19T17:07:26;59941.69;;;-146.93;33.69
21664;BME280;10993;52.510;13.456;2023-06-19T17:12:28;59884.94;;;-146.93;34.25
21664;BME280;10993;52.510;13.456;2023-06-19T17:17:28;59921.41;;;-146.93;34.26
21664;BME280;10993;52.510;13.456;2023-06-19T17:22:28;59856.56;;;-146.93;34.66
21664;BME280;10993;52.510;13.456;2023-06-19T17:27:30;59945.75;;;-146.93;34.50
21664;BME280;10993;52.510;13.456;2023-06-19T17:32:33;60000.47;;;-146.93;34.41
21664;BME280;10993;52.510;13.456;2023-06-19T17:37:33;59972.09;;;-146.93;34.61
21664;BME280;10993;52.510;13.456;2023-06-19T17:42:35;59826.16;;;-146.93;34.94
21664;BME280;10993;52.510;13.456;2023-06-19T17:47:36;59830.22;;;-146.93;34.87
21664;BME280;10993;52.510;13.456;2023-06-19T17:52:36;59751.19;;;-146.93;35.27
21664;BME280;10993;52.510;13.456;2023-06-19T17:57:39;59720.78;;;-146.93;35.62
21664;BME280;10993;52.510;13.456;2023-06-19T18:02:39;59741.06;;;-146.93;35.80
21664;BME280;10993;52.510;13.456;2023-06-19T18:07:39;59662.00;;;-146.93;36.09
21664;BME280;10993;52.510;13.456;2023-06-19T18:12:41;60681.53;;;-146.93;35.64
21664;BME280;10993;52.510;13.456;2023-06-19T18:17:41;59619.47;;;-146.93;35.95
21664;BME280;10993;52.510;13.456;2023-06-19T18:22:42;59538.41;;;-146.93;36.04
21664;BME280;10993;52.510;13.456;2023-06-19T18:27:44;59489.75;;;-146.93;36.53
21664;BME280;10993;52.510;13.456;2023-06-19T18:32:45;59392.50;;;-146.93;36.66
21664;BME280;10993;52.510;13.456;2023-06-19T18:37:45;59544.47;;;-146.93;36.55
21664;BME280;10993;52.510;13.456;2023-06-19T18:42:47;59516.09;;;-146.93;36.70
21664;BME280;10993;52.510;13.456;2023-06-19T18:47:47;59443.16;;;-146.93;36.75
21664;BME280;10993;52.510;13.456;2023-06-19T18:52:47;59396.53;;;-146.93;37.06
21664;BME280;10993;52.510;13.456;2023-06-19T18:57:49;59295.22;;;-146.93;37.38
21664;BME280;10993;52.510;13.456;2023-06-19T19:02:50;59277.00;;;-146.93;37.60
21664;BME280;10993;52.510;13.456;2023-06-19T19:07:52;58985.22;;;-146.93;38.43
21664;BME280;10993;52.510;13.456;2023-06-19T19:12:54;59094.63;;;-146.93;38.90
21664;BME280;10993;52.510;13.456;2023-06-19T19:17:54;59096.66;;;-146.93;39.13
21664;BME280;10993;52.510;13.456;2023-06-19T19:22:54;59033.84;;;-146.93;39.58
21664;BME280;10993;52.510;13.456;2023-06-19T19:27:56;58948.75;;;-146.93;40.30
21664;BME280;10993;52.510;13.456;2023-06-19T19:32:56;58960.91;;;-146.93;40.41
21664;BME280;10993;52.510;13.456;2023-06-19T19:37:57;58883.91;;;-146.93;41.76
21664;BME280;10993;52.510;13.456;2023-06-19T19:42:58;58845.41;;;-146.93;41.91
21664;BME280;10993;52.510;13.456;2023-06-19T19:48:00;58841.38;;;-146.93;42.18
21664;BME280;10993;52.510;13.456;2023-06-19T19:53:01;58681.31;;;-146.93;42.80
21664;BME280;10993;52.510;13.456;2023-06-19T19:58:02;58766.41;;;-146.93;43.36
21664;BME280;10993;52.510;13.456;2023-06-19T20:03:06;58707.66;;;-146.93;43.47
21664;BME280;10993;52.510;13.456;2023-06-19T20:08:06;58687.38;;;-146.93;43.74
21664;BME280;10993;52.510;13.456;2023-06-19T20:13:08;58626.59;;;-146.93;43.91
21664;BME280;10993;52.510;13.456;2023-06-19T20:18:11;58586.09;;;-146.93;44.66
21664;BME280;10993;52.510;13.456;2023-06-19T20:23:12;58557.72;;;-146.93;45.18
21664;BME280;10993;52.510;13.456;2023-06-19T20:28:14;58533.41;;;-146.93;45.36
21664;BME280;10993;52.510;13.456;2023-06-19T20:33:14;58513.16;;;-146.93;45.69
21664;BME280;10993;52.510;13.456;2023-06-19T20:38:15;58472.63;;;-146.93;46.03
21664;BME280;10993;52.510;13.456;2023-06-19T20:43:16;58496.94;;;-146.93;46.68
21664;BME280;10993;52.510;13.456;2023-06-19T20:48:17;58480.75;;;-146.93;46.45
21664;BME280;10993;52.510;13.456;2023-06-19T20:53:18;58452.38;;;-146.93;47.18
21664;BME280;10993;52.510;13.456;2023-06-19T20:58:20;58436.19;;;-146.93;46.88
21664;BME280;10993;52.510;13.456;2023-06-19T21:03:23;58340.97;;;-146.93;47.53
21664;BME280;10993;52.510;13.456;2023-06-19T21:08:27;58347.03;;;-146.93;48.29
21664;BME280;10993;52.510;13.456;2023-06-19T21:13:31;58343.00;;;-146.93;48.56
21664;BME280;10993;52.510;13.456;2023-06-19T21:18:31;58326.78;;;-146.93;50.13
21664;BME280;10993;52.510;13.456;2023-06-19T21:23:32;58276.13;;;-146.93;51.05
21664;BME280;10993;52.510;13.456;2023-06-19T21:28:33;58229.53;;;-146.93;51.35
21664;BME280;10993;52.510;13.456;2023-06-19T21:33:34;58201.19;;;-146.93;51.56
21664;BME280;10993;52.510;13.456;2023-06-19T21:38:34;58191.06;;;-146.93;52.28
21664;BME280;10993;52.510;13.456;2023-06-19T21:43:36;58219.41;;;-146.93;52.30
21664;BME280;10993;52.510;13.456;2023-06-19T21:48:36;58138.41;;;-146.93;52.88
21664;BME280;10993;52.510;13.456;2023-06-19T21:53:37;58124.22;;;-146.93;53.02
21664;BME280;10993;52.510;13.456;2023-06-19T21:58:38;58093.84;;;-146.93;53.78
21664;BME280;10993;52.510;13.456;2023-06-19T22:03:39;58087.75;;;-146.93;54.16
21664;BME280;10993;52.510;13.456;2023-06-19T22:08:39;58093.84;;;-146.93;53.87
21664;BME280;10993;52.510;13.456;2023-06-19T22:13:41;58097.88;;;-146.93;53.20
21664;BME280;10993;52.510;13.456;2023-06-19T22:18:41;58136.38;;;-146.93;54.17
21664;BME280;10993;52.510;13.456;2023-06-19T22:23:42;58031.03;;;-146.93;54.48
21664;BME280;10993;52.510;13.456;2023-06-19T22:28:46;58014.84;;;-146.93;55.27
21664;BME280;10993;52.510;13.456;2023-06-19T22:33:47;58026.97;;;-146.93;55.18
21664;BME280;10993;52.510;13.456;2023-06-19T22:38:47;57962.16;;;-146.93;55.72
21664;BME280;10993;52.510;13.456;2023-06-19T22:43:49;57958.13;;;-146.93;56.11
21664;BME280;10993;52.510;13.456;2023-06-19T22:48:49;57915.59;;;-146.93;56.30
21664;BME280;10993;52.510;13.456;2023-06-19T22:53:52;57929.75;;;-146.93;56.66
21664;BME280;10993;52.510;13.456;2023-06-19T22:58:54;57909.50;;;-146.93;56.89
21664;BME280;10993;52.510;13.456;2023-06-19T23:03:54;57877.09;;;-146.93;57.04
21664;BME280;10993;52.510;13.456;2023-06-19T23:08:55;57866.97;;;-146.93;57.14
21664;BME280;10993;52.510;13.456;2023-06-19T23:13:56;57862.91;;;-146.93;56.81
21664;BME280;10993;52.510;13.456;2023-06-19T23:18:57;57885.19;;;-146.93;56.62
21664;BME280;10993;52.510;13.456;2023-06-19T23:24:00;57792.03;;;-146.93;57.50
21664;BME280;10993;52.510;13.456;2023-06-19T23:29:03;57852.78;;;-146.93;56.58
21664;BME280;10993;52.510;13.456;2023-06-19T23:34:03;57816.34;;;-146.93;56.55
21664;BME280;10993;52.510;13.456;2023-06-19T23:39:04;57785.94;;;-146.93;56.66
21664;BME280;10993;52.510;13.456;2023-06-19T23:44:06;57783.94;;;-146.93;56.81
21664;BME280;10993;52.510;13.456;2023-06-19T23:49:06;57785.94;;;-146.93;56.58
21664;BME280;10993;52.510;13.456;2023-06-19T23:54:07;57759.63;;;-146.93;56.53
21664;BME280;10993;52.510;13.456;2023-06-19T23:59:08;57822.41;;;-146.93;55.62
